WZZ4D1 EGAA-EGPH
Flight info
| Callsign | WZZ4D1 |
|---|---|
| Flight time | 0h 32m |
| Altitude | 15000 |
| Route | BLACA P600 TUNSO |
| Aircraft | A32N/M-V/N |
Departure
| Time | 2026-04-21 13:09 |
|---|---|
| Airport | Belfast International Airport (EGAA) |
Arrival
| Time | 2026-04-21 13:41 |
|---|---|
| Airport | Edinburgh Airport (EGPH) |
| Time | Latitude | Longitude | Altitude | Speed | Heading |
|---|---|---|---|---|---|
| 2026-04-21 12:53 | 54.65949 | -6.21918 | 228 ft | 0 kts | 65° |
| 2026-04-21 12:59 | 54.65947 | -6.21927 | 228 ft | 2 kts | 65° |
| 2026-04-21 13:00 | 54.65940 | -6.21951 | 227 ft | 2 kts | 65° |
| 2026-04-21 13:00 | 54.65934 | -6.21975 | 226 ft | 2 kts | 65° |
| 2026-04-21 13:00 | 54.65928 | -6.21998 | 225 ft | 2 kts | 65° |
| 2026-04-21 13:00 | 54.65922 | -6.22022 | 224 ft | 2 kts | 65° |
| 2026-04-21 13:01 | 54.65916 | -6.22043 | 224 ft | 0 kts | 65° |
| 2026-04-21 13:01 | 54.65914 | -6.22052 | 223 ft | 0 kts | 110° |
| 2026-04-21 13:01 | 54.65917 | -6.22060 | 223 ft | 0 kts | 158° |
| 2026-04-21 13:01 | 54.65923 | -6.22063 | 223 ft | 0 kts | 156° |
| 2026-04-21 13:03 | 54.65919 | -6.22060 | 223 ft | 3 kts | 156° |
| 2026-04-21 13:03 | 54.65883 | -6.22030 | 224 ft | 8 kts | 154° |
| 2026-04-21 13:03 | 54.65812 | -6.22034 | 225 ft | 14 kts | 229° |
| 2026-04-21 13:04 | 54.65768 | -6.22278 | 219 ft | 30 kts | 262° |
| 2026-04-21 13:04 | 54.65744 | -6.22678 | 210 ft | 34 kts | 263° |
| 2026-04-21 13:04 | 54.65648 | -6.23042 | 205 ft | 33 kts | 234° |
| 2026-04-21 13:04 | 54.65538 | -6.23297 | 202 ft | 18 kts | 224° |
| 2026-04-21 13:05 | 54.65449 | -6.23377 | 203 ft | 7 kts | 202° |
| 2026-04-21 13:05 | 54.65446 | -6.23379 | 203 ft | 0 kts | 202° |
| 2026-04-21 13:06 | 54.65445 | -6.23379 | 203 ft | 0 kts | 202° |
| 2026-04-21 13:07 | 54.65429 | -6.23391 | 204 ft | 6 kts | 201° |
| 2026-04-21 13:07 | 54.65358 | -6.23394 | 206 ft | 11 kts | 156° |
| 2026-04-21 13:07 | 54.65294 | -6.23337 | 209 ft | 7 kts | 152° |
| 2026-04-21 13:07 | 54.65288 | -6.23291 | 211 ft | 0 kts | 71° |
| 2026-04-21 13:08 | 54.65377 | -6.22953 | 215 ft | 69 kts | 65° |
| 2026-04-21 13:08 | 54.65685 | -6.21816 | 236 ft | 135 kts | 67° |
| 2026-04-21 13:09 | 54.66111 | -6.20251 | 673 ft | 151 kts | 68° |
| 2026-04-21 13:09 | 54.66532 | -6.18583 | 1431 ft | 154 kts | 70° |
| 2026-04-21 13:09 | 54.66929 | -6.16980 | 2358 ft | 144 kts | 73° |
| 2026-04-21 13:09 | 54.67274 | -6.15325 | 2921 ft | 155 kts | 73° |
| 2026-04-21 13:10 | 54.67658 | -6.13513 | 3405 ft | 171 kts | 73° |
| 2026-04-21 13:10 | 54.68089 | -6.11485 | 3826 ft | 194 kts | 73° |
| 2026-04-21 13:10 | 54.68575 | -6.09212 | 4365 ft | 213 kts | 72° |
| 2026-04-21 13:10 | 54.69113 | -6.06711 | 4951 ft | 232 kts | 72° |
| 2026-04-21 13:11 | 54.69693 | -6.04023 | 5690 ft | 244 kts | 72° |
| 2026-04-21 13:11 | 54.70278 | -6.01319 | 6632 ft | 247 kts | 72° |
| 2026-04-21 13:11 | 54.70876 | -5.98556 | 7569 ft | 251 kts | 72° |
| 2026-04-21 13:11 | 54.71488 | -5.95722 | 8489 ft | 255 kts | 72° |
| 2026-04-21 13:12 | 54.72099 | -5.92882 | 9376 ft | 259 kts | 73° |
| 2026-04-21 13:12 | 54.72733 | -5.89935 | 10254 ft | 264 kts | 73° |
| 2026-04-21 13:12 | 54.73373 | -5.86935 | 10874 ft | 278 kts | 73° |
| 2026-04-21 13:12 | 54.74064 | -5.83684 | 11387 ft | 297 kts | 73° |
| 2026-04-21 13:13 | 54.74798 | -5.80232 | 11831 ft | 315 kts | 72° |
| 2026-04-21 13:13 | 54.75564 | -5.76628 | 12228 ft | 333 kts | 72° |
| 2026-04-21 13:13 | 54.76386 | -5.72762 | 12596 ft | 351 kts | 72° |
| 2026-04-21 13:13 | 54.77238 | -5.68752 | 13096 ft | 363 kts | 72° |
| 2026-04-21 13:14 | 54.78117 | -5.64619 | 13825 ft | 367 kts | 72° |
| 2026-04-21 13:14 | 54.78997 | -5.60468 | 14581 ft | 371 kts | 72° |
| 2026-04-21 13:14 | 54.79884 | -5.56278 | 15150 ft | 374 kts | 72° |
| 2026-04-21 13:14 | 54.80777 | -5.52041 | 15421 ft | 375 kts | 72° |
| 2026-04-21 13:15 | 54.81665 | -5.47825 | 15442 ft | 374 kts | 72° |
| 2026-04-21 13:15 | 54.82551 | -5.43606 | 15445 ft | 374 kts | 72° |
| 2026-04-21 13:15 | 54.83437 | -5.39375 | 15441 ft | 374 kts | 72° |
| 2026-04-21 13:15 | 54.84313 | -5.35182 | 15439 ft | 374 kts | 72° |
| 2026-04-21 13:16 | 54.85194 | -5.30946 | 15439 ft | 374 kts | 73° |
| 2026-04-21 13:16 | 54.86084 | -5.26663 | 15439 ft | 375 kts | 73° |
| 2026-04-21 13:16 | 54.86959 | -5.22459 | 15421 ft | 375 kts | 72° |
| 2026-04-21 13:16 | 54.88127 | -5.18420 | 15426 ft | 380 kts | 58° |
| 2026-04-21 13:17 | 54.89895 | -5.15021 | 15432 ft | 385 kts | 44° |
| 2026-04-21 13:17 | 54.92169 | -5.12448 | 15439 ft | 392 kts | 31° |
| 2026-04-21 13:17 | 54.94606 | -5.10323 | 15444 ft | 392 kts | 30° |
| 2026-04-21 13:17 | 54.97040 | -5.08264 | 15439 ft | 392 kts | 30° |
| 2026-04-21 13:18 | 54.99476 | -5.06194 | 15438 ft | 392 kts | 30° |
| 2026-04-21 13:18 | 55.01911 | -5.04104 | 15436 ft | 392 kts | 30° |
| 2026-04-21 13:18 | 55.04355 | -5.01991 | 15432 ft | 391 kts | 30° |
| 2026-04-21 13:18 | 55.06778 | -4.99888 | 15440 ft | 391 kts | 30° |
| 2026-04-21 13:19 | 55.09155 | -4.97562 | 15424 ft | 387 kts | 39° |
| 2026-04-21 13:19 | 55.11100 | -4.94401 | 15435 ft | 380 kts | 53° |
| 2026-04-21 13:19 | 55.12516 | -4.90578 | 15443 ft | 375 kts | 66° |
| 2026-04-21 13:19 | 55.13586 | -4.86420 | 15452 ft | 374 kts | 69° |
| 2026-04-21 13:20 | 55.14599 | -4.82288 | 15449 ft | 374 kts | 69° |
| 2026-04-21 13:20 | 55.15625 | -4.78087 | 15454 ft | 374 kts | 69° |
| 2026-04-21 13:20 | 55.16647 | -4.73923 | 15454 ft | 374 kts | 69° |
| 2026-04-21 13:20 | 55.17673 | -4.69742 | 15453 ft | 374 kts | 69° |
| 2026-04-21 13:21 | 55.18697 | -4.65575 | 15451 ft | 374 kts | 69° |
| 2026-04-21 13:21 | 55.19712 | -4.61447 | 15451 ft | 374 kts | 69° |
| 2026-04-21 13:21 | 55.20742 | -4.57252 | 15461 ft | 374 kts | 69° |
| 2026-04-21 13:21 | 55.21766 | -4.53080 | 15458 ft | 374 kts | 69° |
| 2026-04-21 13:22 | 55.22783 | -4.48928 | 15460 ft | 374 kts | 69° |
| 2026-04-21 13:22 | 55.23804 | -4.44752 | 15460 ft | 373 kts | 69° |
| 2026-04-21 13:22 | 55.24827 | -4.40564 | 15441 ft | 373 kts | 69° |
| 2026-04-21 13:22 | 55.25834 | -4.36432 | 15454 ft | 373 kts | 69° |
| 2026-04-21 13:23 | 55.26852 | -4.32243 | 15460 ft | 373 kts | 70° |
| 2026-04-21 13:23 | 55.27866 | -4.28064 | 15451 ft | 373 kts | 70° |
| 2026-04-21 13:23 | 55.28871 | -4.23916 | 15453 ft | 372 kts | 70° |
| 2026-04-21 13:23 | 55.29876 | -4.19760 | 15459 ft | 372 kts | 70° |
| 2026-04-21 13:24 | 55.30885 | -4.15584 | 15469 ft | 372 kts | 70° |
| 2026-04-21 13:24 | 55.31900 | -4.11370 | 15467 ft | 372 kts | 70° |
| 2026-04-21 13:24 | 55.32904 | -4.07191 | 15466 ft | 372 kts | 69° |
| 2026-04-21 13:24 | 55.33905 | -4.03023 | 15466 ft | 372 kts | 70° |
| 2026-04-21 13:25 | 55.34901 | -3.98865 | 15392 ft | 373 kts | 69° |
| 2026-04-21 13:25 | 55.35899 | -3.94690 | 14711 ft | 374 kts | 69° |
| 2026-04-21 13:25 | 55.36902 | -3.90492 | 14028 ft | 371 kts | 70° |
| 2026-04-21 13:25 | 55.37892 | -3.86340 | 13408 ft | 367 kts | 70° |
| 2026-04-21 13:26 | 55.38868 | -3.82237 | 12805 ft | 363 kts | 70° |
| 2026-04-21 13:26 | 55.39828 | -3.78192 | 12276 ft | 357 kts | 70° |
| 2026-04-21 13:26 | 55.40776 | -3.74195 | 11899 ft | 346 kts | 70° |
| 2026-04-21 13:26 | 55.41680 | -3.70374 | 11673 ft | 333 kts | 70° |
| 2026-04-21 13:27 | 55.42550 | -3.66693 | 11451 ft | 320 kts | 70° |
| 2026-04-21 13:27 | 55.43386 | -3.63148 | 11242 ft | 309 kts | 70° |
| 2026-04-21 13:27 | 55.44187 | -3.59742 | 11054 ft | 297 kts | 70° |
| 2026-04-21 13:27 | 55.44960 | -3.56451 | 10885 ft | 286 kts | 70° |
| 2026-04-21 13:28 | 55.45697 | -3.53308 | 10732 ft | 274 kts | 70° |
| 2026-04-21 13:28 | 55.46411 | -3.50258 | 10587 ft | 263 kts | 70° |
| 2026-04-21 13:28 | 55.47091 | -3.47351 | 10469 ft | 253 kts | 70° |
| 2026-04-21 13:28 | 55.47770 | -3.44428 | 10367 ft | 262 kts | 70° |
| 2026-04-21 13:29 | 55.48471 | -3.41441 | 10252 ft | 265 kts | 68° |
| 2026-04-21 13:29 | 55.49580 | -3.38833 | 10091 ft | 274 kts | 39° |
| 2026-04-21 13:29 | 55.51373 | -3.37663 | 9882 ft | 288 kts | 7° |
| 2026-04-21 13:29 | 55.53333 | -3.38396 | 9626 ft | 293 kts | 333° |
| 2026-04-21 13:30 | 55.54852 | -3.40730 | 9459 ft | 288 kts | 313° |
| 2026-04-21 13:30 | 55.56129 | -3.43359 | 9267 ft | 280 kts | 313° |
| 2026-04-21 13:30 | 55.57441 | -3.45853 | 8973 ft | 276 kts | 317° |
| 2026-04-21 13:30 | 55.58792 | -3.48129 | 8756 ft | 263 kts | 321° |
| 2026-04-21 13:31 | 55.60150 | -3.50241 | 8321 ft | 259 kts | 322° |
| 2026-04-21 13:31 | 55.61525 | -3.52292 | 7802 ft | 258 kts | 323° |
| 2026-04-21 13:31 | 55.62874 | -3.54279 | 7315 ft | 256 kts | 323° |
| 2026-04-21 13:31 | 55.64234 | -3.56281 | 6825 ft | 254 kts | 323° |
| 2026-04-21 13:32 | 55.65572 | -3.58322 | 6334 ft | 252 kts | 322° |
| 2026-04-21 13:32 | 55.66867 | -3.60336 | 5862 ft | 249 kts | 322° |
| 2026-04-21 13:32 | 55.68154 | -3.62342 | 5394 ft | 247 kts | 322° |
| 2026-04-21 13:32 | 55.69436 | -3.64325 | 4940 ft | 243 kts | 323° |
| 2026-04-21 13:33 | 55.70723 | -3.66239 | 4493 ft | 240 kts | 324° |
| 2026-04-21 13:33 | 55.71995 | -3.68107 | 4243 ft | 234 kts | 324° |
| 2026-04-21 13:33 | 55.73223 | -3.69913 | 4061 ft | 227 kts | 324° |
| 2026-04-21 13:33 | 55.74425 | -3.71687 | 3936 ft | 224 kts | 325° |
| 2026-04-21 13:34 | 55.75623 | -3.73461 | 3934 ft | 226 kts | 323° |
| 2026-04-21 13:34 | 55.76796 | -3.75288 | 3933 ft | 224 kts | 329° |
| 2026-04-21 13:34 | 55.78186 | -3.76214 | 3913 ft | 209 kts | 9° |
| 2026-04-21 13:34 | 55.79534 | -3.75507 | 3935 ft | 202 kts | 28° |
| 2026-04-21 13:35 | 55.80795 | -3.74455 | 3933 ft | 201 kts | 33° |
| 2026-04-21 13:35 | 55.81977 | -3.73135 | 3937 ft | 199 kts | 40° |
| 2026-04-21 13:35 | 55.83016 | -3.71519 | 3935 ft | 197 kts | 50° |
| 2026-04-21 13:35 | 55.83870 | -3.69639 | 3935 ft | 195 kts | 56° |
| 2026-04-21 13:36 | 55.84640 | -3.67708 | 3825 ft | 185 kts | 58° |
| 2026-04-21 13:36 | 55.85330 | -3.65856 | 3661 ft | 176 kts | 59° |
| 2026-04-21 13:36 | 55.85965 | -3.64052 | 3431 ft | 169 kts | 60° |
| 2026-04-21 13:36 | 55.86563 | -3.62298 | 3178 ft | 164 kts | 60° |
| 2026-04-21 13:37 | 55.87146 | -3.60568 | 2931 ft | 159 kts | 61° |
| 2026-04-21 13:37 | 55.87701 | -3.58910 | 2703 ft | 154 kts | 61° |
| 2026-04-21 13:37 | 55.88237 | -3.57309 | 2489 ft | 148 kts | 60° |
| 2026-04-21 13:37 | 55.88751 | -3.55775 | 2288 ft | 142 kts | 60° |
| 2026-04-21 13:38 | 55.89251 | -3.54283 | 2093 ft | 135 kts | 60° |
| 2026-04-21 13:38 | 55.89716 | -3.52901 | 1912 ft | 128 kts | 60° |
| 2026-04-21 13:38 | 55.90167 | -3.51558 | 1753 ft | 125 kts | 60° |
| 2026-04-21 13:38 | 55.90606 | -3.50254 | 1628 ft | 120 kts | 60° |
| 2026-04-21 13:39 | 55.91027 | -3.49005 | 1462 ft | 118 kts | 60° |
| 2026-04-21 13:39 | 55.91446 | -3.47764 | 1302 ft | 117 kts | 60° |
| 2026-04-21 13:39 | 55.91866 | -3.46516 | 1139 ft | 116 kts | 60° |
| 2026-04-21 13:39 | 55.92282 | -3.45286 | 982 ft | 116 kts | 60° |
| 2026-04-21 13:40 | 55.92696 | -3.44060 | 823 ft | 116 kts | 60° |
| 2026-04-21 13:40 | 55.93114 | -3.42821 | 667 ft | 116 kts | 59° |
| 2026-04-21 13:40 | 55.93528 | -3.41597 | 504 ft | 115 kts | 59° |
| 2026-04-21 13:40 | 55.93936 | -3.40384 | 357 ft | 116 kts | 59° |
| 2026-04-21 13:41 | 55.94356 | -3.39147 | 197 ft | 115 kts | 59° |
| 2026-04-21 13:41 | 55.94759 | -3.37952 | 103 ft | 106 kts | 58° |
| 2026-04-21 13:41 | 55.95058 | -3.37073 | 99 ft | 58 kts | 57° |
| 2026-04-21 13:41 | 55.95224 | -3.36588 | 102 ft | 28 kts | 57° |
| 2026-04-21 13:42 | 55.95235 | -3.36400 | 103 ft | 12 kts | 142° |
| 2026-04-21 13:42 | 55.95172 | -3.36331 | 103 ft | 5 kts | 148° |
| 2026-04-21 13:42 | 55.95161 | -3.36319 | 103 ft | 3 kts | 148° |
| 2026-04-21 13:42 | 55.95138 | -3.36276 | 103 ft | 0 kts | 139° |
| 2026-04-21 13:43 | 55.95135 | -3.36276 | 103 ft | 1 kts | 185° |
| 2026-04-21 13:43 | 55.95104 | -3.36370 | 103 ft | 14 kts | 230° |
| 2026-04-21 13:43 | 55.95032 | -3.36390 | 103 ft | 9 kts | 192° |
| 2026-04-21 13:43 | 55.94988 | -3.36406 | 103 ft | 6 kts | 156° |
| 2026-04-21 13:44 | 55.94952 | -3.36369 | 103 ft | 2 kts | 148° |
| 2026-04-21 13:44 | 55.94949 | -3.36366 | 103 ft | 0 kts | 148° |